Time;durP1;ratioP1;P1;durP2;ratioP2;P2;SDS_P1;SDS_P2;PMS_P1;PMS_P2;Temp;Humidity;BMP_temperature;BMP_pressure;BME280_temperature;BME280_humidity;BME280_pressure;Samples;Min_cycle;Max_cycle;Signal;HPM_P1;HPM_P2
2023/05/29 00:00:07;;;;;;;4.60;2.50;;;12.70;1.00;;;;;;5092346;28;20184;-83
2023/05/29 00:02:34;;;;;;;4.80;2.90;;;12.60;1.00;;;;;;5076724;28;20177;-83
2023/05/29 00:05:02;;;;;;;3.63;2.80;;;12.50;94.50;;;;;;5094364;28;20199;-82
2023/05/29 00:07:29;;;;;;;5.50;3.17;;;12.40;99.90;;;;;;5094277;28;20223;-83
2023/05/29 00:09:55;;;;;;;3.57;2.77;;;12.40;99.90;;;;;;5093706;28;20196;-83
2023/05/29 00:12:21;;;;;;;3.87;2.90;;;12.30;99.90;;;;;;5086773;28;20197;-83
2023/05/29 00:14:48;;;;;;;3.87;2.80;;;12.20;1.00;;;;;;5094035;28;20171;-83
2023/05/29 00:17:15;;;;;;;4.13;2.90;;;12.10;1.00;;;;;;5075629;28;20203;-83
2023/05/29 00:19:41;;;;;;;4.13;2.90;;;12.10;1.00;;;;;;5093689;28;20207;-84
2023/05/29 00:22:06;;;;;;;4.10;2.70;;;12.20;1.00;;;;;;5086172;28;20220;-83
2023/05/29 00:24:32;;;;;;;4.13;2.73;;;12.20;1.00;;;;;;5093752;28;20720;-82
2023/05/29 00:26:58;;;;;;;3.33;2.40;;;12.30;99.90;;;;;;5092874;28;20275;-82
2023/05/29 00:29:23;;;;;;;3.90;2.80;;;12.30;99.90;;;;;;5084857;28;20161;-82
2023/05/29 00:31:49;;;;;;;4.33;2.53;;;12.30;99.90;;;;;;5093124;28;20169;-83
2023/05/29 00:34:15;;;;;;;3.13;2.60;;;12.20;99.90;;;;;;5093717;28;20264;-83
2023/05/29 00:36:40;;;;;;;3.47;2.50;;;12.10;1.00;;;;;;5075624;28;20203;-83
2023/05/29 00:39:06;;;;;;;4.53;2.80;;;12.20;1.00;;;;;;5152320;22;20249;-81
2023/05/29 00:41:31;;;;;;;4.93;2.50;;;12.30;1.00;;;;;;5076295;28;20779;-82
2023/05/29 00:43:57;;;;;;;4.90;2.43;;;12.40;99.90;;;;;;5079823;28;20176;-82
2023/05/29 00:46:23;;;;;;;3.37;2.93;;;12.30;99.90;;;;;;5096591;28;20172;-82
2023/05/29 00:48:49;;;;;;;3.80;2.57;;;12.30;99.90;;;;;;5096405;28;20192;-82
2023/05/29 00:51:15;;;;;;;5.70;2.90;;;12.20;99.90;;;;;;5095662;28;20186;-83
2023/05/29 00:53:43;;;;;;;3.70;2.93;;;11.80;1.00;;;;;;5095626;28;20707;-82
2023/05/29 00:56:09;;;;;;;5.80;3.13;;;11.40;99.90;;;;;;5079775;28;20194;-82
2023/05/29 00:58:35;;;;;;;4.53;2.80;;;11.10;99.90;;;;;;5077764;28;20701;-80
2023/05/29 01:01:03;;;;;;;4.27;2.73;;;10.90;1.00;;;;;;5077785;28;20200;-82
2023/05/29 01:03:29;;;;;;;5.17;3.07;;;11.00;99.90;;;;;;5079310;28;20638;-83
2023/05/29 01:05:54;;;;;;;4.03;2.77;;;11.10;1.00;;;;;;5086583;28;20195;-86
2023/05/29 01:08:20;;;;;;;4.97;3.23;;;11.20;1.00;;;;;;5097343;28;20208;-85
2023/05/29 01:10:47;;;;;;;5.87;3.00;;;11.40;99.90;;;;;;5087558;28;20549;-84
2023/05/29 01:13:20;;;;;;;4.87;3.00;;;11.60;99.90;;;;;;5099001;28;20180;-83
2023/05/29 01:15:58;;;;;;;7.77;2.90;;;11.50;99.90;;;;;;5075528;28;20276;-84
2023/05/29 01:19:00;;;;;;;4.87;3.07;;;11.20;1.00;;;;;;5089076;28;20692;-84
2023/05/29 01:21:41;;;;;;;4.43;3.00;;;10.80;99.90;;;;;;5081874;28;20199;-84
2023/05/29 01:24:16;;;;;;;4.37;2.90;;;11.00;99.90;;;;;;5092813;28;20172;-83
2023/05/29 01:27:00;;;;;;;4.13;2.70;;;11.00;99.90;;;;;;5090244;28;20164;-83
2023/05/29 01:29:31;;;;;;;4.07;2.90;;;10.80;1.00;;;;;;5092959;28;20196;-85
2023/05/29 01:31:57;;;;;;;3.40;2.80;;;10.80;11.40;;;;;;5094068;28;20183;-82
2023/05/29 01:34:23;;;;;;;3.50;2.70;;;10.90;99.90;;;;;;5094708;28;20684;-82
2023/05/29 01:36:49;;;;;;;3.27;2.60;;;11.00;74.20;;;;;;5094739;28;20183;-82
2023/05/29 01:39:15;;;;;;;3.93;2.80;;;11.00;1.00;;;;;;5075492;28;20265;-81
2023/05/29 01:41:44;;;;;;;4.17;3.13;;;10.80;1.00;;;;;;5079654;28;20627;-82
2023/05/29 01:44:12;;;;;;;6.30;2.73;;;10.90;1.00;;;;;;5073849;28;20266;-84
2023/05/29 01:46:38;;;;;;;4.00;3.10;;;11.00;99.90;;;;;;5098049;28;20192;-81
2023/05/29 01:49:05;;;;;;;5.47;2.80;;;11.00;1.00;;;;;;5097829;28;20264;-82
2023/05/29 01:51:31;;;;;;;5.13;2.90;;;10.70;1.00;;;;;;5084608;28;20177;-81
2023/05/29 01:53:59;;;;;;;4.03;3.00;;;10.50;99.90;;;;;;5091995;28;20172;-82
2023/05/29 01:56:26;;;;;;;4.03;2.50;;;10.40;1.00;;;;;;5096767;28;20212;-81
2023/05/29 01:58:53;;;;;;;4.37;2.60;;;10.40;1.00;;;;;;5082086;28;20199;-81
2023/05/29 02:01:21;;;;;;;4.07;2.70;;;10.40;99.90;;;;;;5095525;28;20199;-80
2023/05/29 02:03:46;;;;;;;6.50;2.67;;;10.40;99.90;;;;;;5078881;28;20204;-81
2023/05/29 02:06:12;;;;;;;3.30;2.50;;;10.40;99.90;;;;;;5084767;28;20196;-82
2023/05/29 02:08:37;;;;;;;3.37;2.63;;;10.10;99.90;;;;;;5092335;28;20203;-82
2023/05/29 02:11:03;;;;;;;3.80;2.73;;;10.00;99.90;;;;;;5097665;28;20191;-84
2023/05/29 02:13:29;;;;;;;4.10;2.60;;;9.80;99.90;;;;;;5087497;28;20188;-83
2023/05/29 02:15:54;;;;;;;4.37;2.97;;;10.00;99.90;;;;;;5082589;28;20180;-82
2023/05/29 02:18:20;;;;;;;9.03;3.50;;;9.80;1.00;;;;;;5086208;28;20232;-83
2023/05/29 02:20:46;;;;;;;5.33;2.70;;;9.80;99.90;;;;;;5081177;28;20272;-83
2023/05/29 02:23:12;;;;;;;5.70;2.83;;;9.90;99.90;;;;;;5086065;28;20178;-83
2023/05/29 02:25:38;;;;;;;6.20;3.03;;;10.00;99.90;;;;;;5077798;28;20200;-82
2023/05/29 02:28:04;;;;;;;3.57;2.63;;;10.10;1.00;;;;;;5080853;28;20200;-82
2023/05/29 02:30:30;;;;;;;4.87;2.80;;;10.20;1.00;;;;;;5095099;28;20181;-82
2023/05/29 02:32:56;;;;;;;4.97;2.83;;;10.40;99.90;;;;;;5078579;28;20179;-83
2023/05/29 02:35:22;;;;;;;6.57;3.30;;;10.60;99.90;;;;;;5084925;28;20559;-83
2023/05/29 02:37:52;;;;;;;5.13;2.93;;;10.60;1.00;;;;;;5059357;28;1070792;-85
2023/05/29 02:40:18;;;;;;;4.00;3.20;;;10.60;51.90;;;;;;5098623;28;20179;-82
2023/05/29 02:42:44;;;;;;;6.47;3.10;;;10.30;99.90;;;;;;5074528;28;20187;-83
2023/05/29 02:45:09;;;;;;;4.13;2.80;;;10.30;46.70;;;;;;5088599;28;20184;-85
2023/05/29 02:47:36;;;;;;;5.47;3.90;;;9.80;99.90;;;;;;5099231;28;20237;-83
2023/05/29 02:50:02;;;;;;;3.73;2.70;;;9.70;99.90;;;;;;5076888;28;20226;-83
2023/05/29 02:52:28;;;;;;;4.20;2.67;;;9.60;62.40;;;;;;5081355;28;20548;-82
2023/05/29 02:54:55;;;;;;;5.30;3.00;;;9.70;99.90;;;;;;5081721;28;20214;-82
2023/05/29 02:57:21;;;;;;;4.20;2.80;;;9.70;1.00;;;;;;5081775;28;20594;-83
2023/05/29 02:59:47;;;;;;;4.07;2.83;;;9.80;99.90;;;;;;5098678;28;20712;-83
2023/05/29 03:02:12;;;;;;;4.67;3.10;;;9.90;99.90;;;;;;5090662;28;20199;-82
2023/05/29 03:04:38;;;;;;;3.47;2.90;;;9.80;1.00;;;;;;5079641;28;20176;-82
2023/05/29 03:07:04;;;;;;;3.67;3.13;;;9.90;1.00;;;;;;5081617;28;20176;-82
2023/05/29 03:09:29;;;;;;;5.27;3.20;;;10.00;99.90;;;;;;5100908;28;20249;-83
2023/05/29 03:11:55;;;;;;;3.87;2.70;;;10.00;94.50;;;;;;5092406;28;20207;-83
2023/05/29 03:14:21;;;;;;;4.30;2.67;;;10.00;99.90;;;;;;5085965;28;20552;-82
2023/05/29 03:16:49;;;;;;;4.17;2.73;;;9.90;1.00;;;;;;5085442;28;20215;-83
2023/05/29 03:19:15;;;;;;;4.67;2.90;;;9.70;99.90;;;;;;5084848;28;20294;-82
2023/05/29 03:21:40;;;;;;;4.40;2.77;;;9.80;1.00;;;;;;5096627;28;20204;-82
2023/05/29 03:24:06;;;;;;;3.97;2.87;;;9.90;99.90;;;;;;5068373;28;20167;-83
2023/05/29 03:26:32;;;;;;;4.60;2.90;;;10.00;1.00;;;;;;5091181;28;20226;-81
2023/05/29 03:28:57;;;;;;;4.70;3.10;;;10.00;1.00;;;;;;5097377;28;20210;-83
2023/05/29 03:31:23;;;;;;;3.90;2.87;;;10.00;99.90;;;;;;5078254;28;20177;-83
2023/05/29 03:33:49;;;;;;;4.93;3.10;;;10.00;99.90;;;;;;5096570;28;20237;-82
2023/05/29 03:36:16;;;;;;;4.47;2.60;;;10.10;99.90;;;;;;5085212;28;20219;-82
2023/05/29 03:38:43;;;;;;;4.07;3.10;;;10.00;1.00;;;;;;5087563;28;20211;-82
2023/05/29 03:41:08;;;;;;;4.90;3.40;;;9.80;1.00;;;;;;5095380;28;20202;-82
2023/05/29 03:43:34;;;;;;;4.40;3.00;;;9.90;99.90;;;;;;5097425;28;20603;-81
2023/05/29 03:46:00;;;;;;;5.53;3.00;;;9.90;89.20;;;;;;5092636;28;20176;-83
2023/05/29 03:48:25;;;;;;;5.03;3.03;;;10.00;1.00;;;;;;5096986;28;20228;-82
2023/05/29 03:50:51;;;;;;;4.73;3.23;;;10.00;99.90;;;;;;5086258;28;20204;-83
2023/05/29 03:53:16;;;;;;;4.20;2.93;;;10.10;99.90;;;;;;5096362;28;20180;-83
2023/05/29 03:55:42;;;;;;;4.27;2.93;;;10.10;99.90;;;;;;5096673;28;20267;-83
2023/05/29 03:58:07;;;;;;;5.03;3.00;;;10.00;1.00;;;;;;5078641;28;20200;-83
2023/05/29 04:00:33;;;;;;;3.77;2.90;;;9.90;99.90;;;;;;5085054;28;20262;-81
2023/05/29 04:02:59;;;;;;;4.17;3.13;;;9.80;99.90;;;;;;5097692;28;20176;-83
2023/05/29 04:05:25;;;;;;;4.93;3.23;;;9.70;1.00;;;;;;5093714;28;20192;-82
2023/05/29 04:07:51;;;;;;;3.80;2.77;;;9.60;1.00;;;;;;5087379;28;20179;-82
2023/05/29 04:10:17;;;;;;;5.50;2.90;;;9.60;99.90;;;;;;5096838;28;20184;-84
2023/05/29 04:12:42;;;;;;;5.23;3.30;;;9.60;1.00;;;;;;5097702;28;20176;-83
2023/05/29 04:15:08;;;;;;;4.27;3.10;;;9.50;99.90;;;;;;5097243;28;20266;-82
2023/05/29 04:17:34;;;;;;;5.00;3.17;;;9.20;99.90;;;;;;5087524;28;20692;-82
2023/05/29 04:20:05;;;;;;;5.20;3.20;;;9.10;1.00;;;;;;5083046;28;20195;-81
2023/05/29 04:22:31;;;;;;;4.97;3.27;;;9.00;99.90;;;;;;5091595;28;20199;-82
2023/05/29 04:24:57;;;;;;;5.00;3.30;;;8.90;1.00;;;;;;5072157;28;20187;-83
2023/05/29 04:27:22;;;;;;;3.73;3.03;;;9.00;89.20;;;;;;5094197;28;20181;-83
2023/05/29 04:29:48;;;;;;;6.03;3.30;;;9.10;99.90;;;;;;5088286;28;20189;-83
2023/05/29 04:32:13;;;;;;;3.80;3.13;;;9.30;1.00;;;;;;5098200;28;20187;-81
2023/05/29 04:34:39;;;;;;;4.50;2.90;;;9.40;99.90;;;;;;5099438;28;20178;-83
2023/05/29 04:37:05;;;;;;;4.70;3.30;;;9.50;1.00;;;;;;5100398;28;20170;-83
2023/05/29 04:39:31;;;;;;;3.93;3.30;;;9.40;1.00;;;;;;5084552;28;20219;-81
2023/05/29 04:42:00;;;;;;;4.50;3.13;;;9.40;1.00;;;;;;5094572;28;20190;-80
2023/05/29 04:44:26;;;;;;;4.70;3.10;;;9.50;1.00;;;;;;5095589;28;20660;-83
2023/05/29 04:46:52;;;;;;;4.20;2.83;;;9.70;1.00;;;;;;5076889;28;20259;-83
2023/05/29 04:49:18;;;;;;;4.67;2.90;;;9.90;99.90;;;;;;5076630;28;20203;-82
2023/05/29 04:51:44;;;;;;;4.30;3.30;;;10.00;99.90;;;;;;5076978;28;20179;-86
2023/05/29 04:54:10;;;;;;;4.20;3.03;;;10.00;99.90;;;;;;5095332;28;20612;-84
2023/05/29 04:56:36;;;;;;;5.23;3.43;;;10.00;99.90;;;;;;5077520;28;20191;-86
2023/05/29 04:59:02;;;;;;;6.07;3.37;;;10.00;1.00;;;;;;5077553;28;20188;-86
2023/05/29 05:01:28;;;;;;;6.27;3.43;;;10.20;1.00;;;;;;5076648;28;20232;-85
2023/05/29 05:03:55;;;;;;;5.53;3.83;;;10.50;1.00;;;;;;5096734;28;20176;-84
2023/05/29 05:06:22;;;;;;;5.77;3.30;;;10.80;99.90;;;;;;5091877;28;20172;-85
2023/05/29 05:08:47;;;;;;;5.17;3.40;;;10.90;1.00;;;;;;5058507;28;20189;-84
2023/05/29 05:11:14;;;;;;;6.57;3.87;;;11.10;99.90;;;;;;5093716;28;20201;-85
2023/05/29 05:13:39;;;;;;;4.83;3.40;;;11.20;1.00;;;;;;5098471;28;20176;-85
2023/05/29 05:16:05;;;;;;;5.93;3.50;;;11.30;1.00;;;;;;5088079;28;20240;-85
2023/05/29 05:18:31;;;;;;;4.17;3.27;;;11.30;1.00;;;;;;5080309;28;20655;-86
2023/05/29 05:20:56;;;;;;;5.43;3.47;;;11.50;1.00;;;;;;5080421;28;20192;-85
2023/05/29 05:23:22;;;;;;;6.10;3.80;;;11.50;1.00;;;;;;5098912;28;20203;-85
2023/05/29 05:25:48;;;;;;;5.90;3.33;;;11.60;1.00;;;;;;5087872;28;20541;-83
2023/05/29 05:28:13;;;;;;;7.50;3.67;;;11.70;1.00;;;;;;5086979;28;20192;-86
2023/05/29 05:30:39;;;;;;;6.83;3.30;;;11.80;1.00;;;;;;5083706;28;20183;-86
2023/05/29 05:33:04;;;;;;;5.40;3.57;;;11.90;1.00;;;;;;5080638;28;20187;-86
2023/05/29 05:35:30;;;;;;;7.73;4.17;;;11.90;99.90;;;;;;5096282;28;20650;-86
2023/05/29 05:37:57;;;;;;;6.10;3.97;;;12.00;1.00;;;;;;5096091;28;20553;-87
2023/05/29 05:40:24;;;;;;;3.90;3.47;;;12.10;1.00;;;;;;5077570;28;20580;-87
2023/05/29 05:42:50;;;;;;;3.80;3.10;;;12.10;1.00;;;;;;5078214;28;20222;-86
2023/05/29 05:45:16;;;;;;;7.37;3.87;;;12.20;99.90;;;;;;5096688;28;20168;-87
2023/05/29 05:47:41;;;;;;;5.17;3.70;;;12.30;99.90;;;;;;5080746;28;20182;-86
2023/05/29 05:50:07;;;;;;;6.27;3.80;;;12.30;1.00;;;;;;5077648;28;20260;-87
2023/05/29 05:52:33;;;;;;;6.47;4.03;;;12.40;1.00;;;;;;5082748;28;20177;-87
2023/05/29 05:54:59;;;;;;;5.80;3.70;;;12.40;99.90;;;;;;5078549;28;20180;-87
2023/05/29 05:57:25;;;;;;;4.87;3.37;;;12.50;99.90;;;;;;5083769;28;20236;-87
2023/05/29 05:59:51;;;;;;;5.87;3.53;;;12.60;1.00;;;;;;5066551;28;20245;-87
2023/05/29 06:02:16;;;;;;;6.13;4.00;;;12.70;1.00;;;;;;5095737;28;20196;-87
2023/05/29 06:04:43;;;;;;;6.83;3.80;;;12.80;99.90;;;;;;5082521;28;20535;-87
2023/05/29 06:07:08;;;;;;;4.73;3.27;;;12.90;99.90;;;;;;5089142;28;20171;-87
2023/05/29 06:09:34;;;;;;;6.27;3.53;;;13.00;99.90;;;;;;5095703;28;20193;-87
2023/05/29 06:12:00;;;;;;;6.57;3.50;;;13.20;99.90;;;;;;5095638;28;20201;-86
2023/05/29 06:14:25;;;;;;;5.30;3.60;;;13.30;1.00;;;;;;5086906;28;20577;-88
2023/05/29 06:16:51;;;;;;;5.43;3.20;;;13.40;1.00;;;;;;5095374;28;20172;-88
2023/05/29 06:19:17;;;;;;;6.23;3.43;;;13.60;1.00;;;;;;5088663;28;20682;-87
2023/05/29 06:21:42;;;;;;;5.20;3.13;;;13.70;1.00;;;;;;5101924;28;20187;-87
2023/05/29 06:24:08;;;;;;;5.40;3.23;;;13.80;99.90;;;;;;5078488;28;20184;-88
2023/05/29 06:26:36;;;;;;;6.07;3.90;;;13.80;1.00;;;;;;5094784;28;20195;-88
2023/05/29 06:29:01;;;;;;;5.63;3.60;;;13.90;1.00;;;;;;5095059;28;20195;-88
2023/05/29 06:31:28;;;;;;;5.43;3.20;;;14.00;99.90;;;;;;5084741;28;20546;-87
2023/05/29 06:33:54;;;;;;;4.87;3.40;;;14.10;1.00;;;;;;5095587;28;20183;-88
2023/05/29 06:36:20;;;;;;;5.73;3.13;;;14.20;1.00;;;;;;5077206;28;20206;-86
2023/05/29 06:38:47;;;;;;;8.10;3.57;;;14.30;17.20;;;;;;5072148;28;20207;-88
2023/05/29 06:41:13;;;;;;;6.53;3.10;;;14.30;99.90;;;;;;5079375;28;20204;-86
2023/05/29 06:43:38;;;;;;;5.37;3.30;;;14.50;1.00;;;;;;5078515;28;20175;-87
2023/05/29 06:46:04;;;;;;;5.13;3.33;;;14.50;1.00;;;;;;5093678;28;20181;-87
2023/05/29 06:48:34;;;;;;;5.37;3.57;;;14.70;1.00;;;;;;5094831;28;20204;-88
2023/05/29 06:50:59;;;;;;;5.30;3.60;;;14.80;1.00;;;;;;5076640;28;20190;-87
2023/05/29 06:53:25;;;;;;;6.87;3.23;;;14.90;92.50;;;;;;5075818;28;20188;-88
2023/05/29 06:55:52;;;;;;;6.83;3.43;;;15.00;99.90;;;;;;5085169;28;20208;-88
2023/05/29 06:58:17;;;;;;;6.60;3.50;;;15.10;1.00;;;;;;5082621;28;20196;-87
2023/05/29 07:00:43;;;;;;;4.67;3.40;;;15.30;99.90;;;;;;5093487;28;20206;-87
2023/05/29 07:03:08;;;;;;;6.20;3.20;;;15.30;20.80;;;;;;5094722;28;20212;-87
2023/05/29 07:05:34;;;;;;;5.07;3.13;;;15.40;1.00;;;;;;5075220;28;20181;-84
2023/05/29 07:07:59;;;;;;;4.53;3.27;;;15.50;1.00;;;;;;5057647;28;20221;-87
2023/05/29 07:10:25;;;;;;;6.80;3.30;;;15.60;1.00;;;;;;5093615;28;20168;-88
2023/05/29 07:12:51;;;;;;;4.93;3.00;;;15.60;1.00;;;;;;5077474;28;20198;-87
2023/05/29 07:15:16;;;;;;;6.20;3.30;;;15.80;1.00;;;;;;5075907;28;20195;-87
2023/05/29 07:17:42;;;;;;;5.30;3.20;;;15.80;99.90;;;;;;5069753;28;20169;-88
2023/05/29 07:20:08;;;;;;;4.77;3.20;;;15.90;99.90;;;;;;5091185;28;20164;-85
2023/05/29 07:22:34;;;;;;;5.60;3.43;;;16.00;99.90;;;;;;5096074;28;20190;-86
2023/05/29 07:25:00;;;;;;;5.60;3.30;;;16.10;1.00;;;;;;5077122;28;20172;-86
2023/05/29 07:27:26;;;;;;;5.20;3.43;;;16.20;1.00;;;;;;5079146;28;20177;-85
2023/05/29 07:29:51;;;;;;;4.13;3.10;;;16.20;1.00;;;;;;5078341;28;20207;-86
2023/05/29 07:32:17;;;;;;;5.03;3.23;;;16.30;1.00;;;;;;5094951;28;20187;-87
2023/05/29 07:34:43;;;;;;;5.93;3.23;;;16.40;1.00;;;;;;5085025;28;20168;-84
2023/05/29 07:37:08;;;;;;;5.70;3.20;;;16.50;1.00;;;;;;5095296;28;20263;-86
2023/05/29 07:39:35;;;;;;;7.60;3.60;;;16.80;51.10;;;;;;5079033;28;20264;-86
2023/05/29 07:42:01;;;;;;;5.27;3.23;;;16.90;99.90;;;;;;5092297;28;20192;-87
2023/05/29 07:44:27;;;;;;;3.93;2.80;;;16.90;1.00;;;;;;5097137;28;20203;-84
2023/05/29 07:46:52;;;;;;;7.33;3.50;;;17.00;49.50;;;;;;5099572;28;20176;-81
2023/05/29 07:49:20;;;;;;;4.83;3.37;;;17.20;1.00;;;;;;5080248;28;20199;-80
2023/05/29 07:51:45;;;;;;;6.10;3.40;;;17.30;1.00;;;;;;5081756;28;20184;-80
2023/05/29 07:54:11;;;;;;;6.77;3.10;;;17.40;1.00;;;;;;5086817;28;20194;-78
2023/05/29 07:56:38;;;;;;;6.17;3.27;;;17.40;1.00;;;;;;5098638;28;20187;-80
2023/05/29 07:59:05;;;;;;;5.30;3.20;;;17.60;1.00;;;;;;5102282;28;20215;-83
2023/05/29 08:01:31;;;;;;;5.50;3.43;;;17.60;1.00;;;;;;5095907;28;20223;-79
2023/05/29 08:03:56;;;;;;;5.70;3.03;;;17.70;1.00;;;;;;5099111;28;20557;-83
2023/05/29 08:06:22;;;;;;;5.43;3.13;;;17.80;1.00;;;;;;5093862;28;20184;-81
2023/05/29 08:08:48;;;;;;;6.37;3.40;;;18.00;99.90;;;;;;5097336;28;20216;-84
2023/05/29 08:11:13;;;;;;;5.87;3.20;;;18.00;1.00;;;;;;5105002;28;20186;-80
2023/05/29 08:13:39;;;;;;;5.90;3.07;;;18.10;99.90;;;;;;5077282;28;20186;-80
2023/05/29 08:16:05;;;;;;;6.97;3.30;;;18.30;99.90;;;;;;5072582;28;20185;-86
2023/05/29 08:18:35;;;;;;;4.17;3.03;;;18.40;99.90;;;;;;5072585;28;20200;-85
2023/05/29 08:21:00;;;;;;;6.07;3.00;;;18.50;99.30;;;;;;5077432;28;20242;-83
2023/05/29 08:23:26;;;;;;;5.70;3.00;;;18.70;99.90;;;;;;5092469;28;20245;-86
2023/05/29 08:25:51;;;;;;;6.17;3.07;;;18.90;17.60;;;;;;5093373;28;20172;-85
2023/05/29 08:28:17;;;;;;;5.37;3.00;;;18.90;47.00;;;;;;5093713;28;20341;-86
2023/05/29 08:30:43;;;;;;;5.00;3.07;;;19.10;1.00;;;;;;5074225;28;20183;-87
2023/05/29 08:33:08;;;;;;;4.93;2.90;;;19.20;1.00;;;;;;5091457;28;20184;-89
2023/05/29 08:35:34;;;;;;;5.70;3.20;;;19.50;1.00;;;;;;5090299;28;20237;-86
2023/05/29 08:38:00;;;;;;;5.77;3.20;;;19.70;99.90;;;;;;5091206;28;20196;-88
2023/05/29 08:40:26;;;;;;;4.20;2.73;;;19.90;1.00;;;;;;5082452;28;20191;-86
2023/05/29 08:43:02;;;;;;;5.13;3.10;;;19.90;99.90;;;;;;5093963;28;20172;-85
2023/05/29 08:45:29;;;;;;;5.77;2.77;;;19.90;99.90;;;;;;5094199;28;20167;-86
2023/05/29 08:47:57;;;;;;;4.23;3.03;;;19.90;99.90;;;;;;5075820;28;20260;-85
2023/05/29 08:50:23;;;;;;;5.20;3.10;;;20.00;99.90;;;;;;5074453;28;20217;-88
2023/05/29 08:52:50;;;;;;;6.67;3.33;;;20.10;99.90;;;;;;5074940;28;20172;-84
2023/05/29 08:55:16;;;;;;;4.57;3.20;;;20.20;1.00;;;;;;5076519;28;20169;-87
2023/05/29 08:57:45;;;;;;;5.23;3.07;;;20.40;1.00;;;;;;5093965;28;20309;-86
2023/05/29 09:00:17;;;;;;;4.43;3.10;;;20.60;1.00;;;;;;5094689;28;20551;-86
2023/05/29 09:02:43;;;;;;;4.50;3.20;;;20.80;1.00;;;;;;5092773;28;20211;-88
2023/05/29 09:05:10;;;;;;;5.30;2.80;;;21.00;99.90;;;;;;5076853;28;20173;-87
2023/05/29 09:07:38;;;;;;;5.38;3.08;;;21.30;99.90;;;;;;5078163;28;20263;-86
2023/05/29 09:10:08;;;;;;;3.38;2.85;;;21.40;99.90;;;;;;5096105;28;20275;-86
2023/05/29 09:12:34;;;;;;;3.60;2.65;;;21.50;99.90;;;;;;5078181;28;20202;-86
2023/05/29 09:15:01;;;;;;;4.28;2.72;;;21.50;8.80;;;;;;5077536;28;20268;-87
2023/05/29 09:17:32;;;;;;;4.65;2.97;;;21.50;1.00;;;;;;5096022;28;20198;-86
2023/05/29 09:19:58;;;;;;;4.00;2.90;;;21.70;1.00;;;;;;5079815;28;20196;-84
2023/05/29 09:22:23;;;;;;;3.85;3.00;;;21.70;1.00;;;;;;5099995;28;20207;-83
2023/05/29 09:24:50;;;;;;;3.85;3.00;;;21.80;1.00;;;;;;5099917;28;20179;-85
2023/05/29 09:27:17;;;;;;;3.78;2.97;;;22.00;1.00;;;;;;5099883;28;20658;-84
2023/05/29 09:29:44;;;;;;;5.85;3.20;;;22.10;1.00;;;;;;5100108;28;20188;-84
2023/05/29 09:32:12;;;;;;;3.65;2.67;;;22.20;1.00;;;;;;5082426;28;20177;-84
2023/05/29 09:34:38;;;;;;;4.28;2.75;;;22.20;1.00;;;;;;5100449;28;20175;-83
2023/05/29 09:37:08;;;;;;;3.85;2.75;;;22.30;1.00;;;;;;5101114;28;20231;-85
2023/05/29 09:39:41;;;;;;;4.30;3.20;;;22.40;1.00;;;;;;5099467;28;20235;-83
2023/05/29 09:42:06;;;;;;;3.25;2.60;;;22.40;1.00;;;;;;5100337;28;20204;-83
2023/05/29 09:44:32;;;;;;;4.32;3.00;;;22.60;1.00;;;;;;5082222;28;20198;-82
2023/05/29 09:46:59;;;;;;;4.63;2.90;;;22.70;1.00;;;;;;5099196;28;20650;-85
2023/05/29 09:49:26;;;;;;;4.38;3.20;;;23.00;1.00;;;;;;5101747;28;20188;-83
2023/05/29 09:51:59;;;;;;;3.40;2.88;;;23.20;1.00;;;;;;5082204;28;20174;-85
2023/05/29 09:54:30;;;;;;;5.47;3.03;;;23.20;1.00;;;;;;5082715;28;20273;-83
2023/05/29 09:57:01;;;;;;;5.60;2.55;;;23.30;1.00;;;;;;5082139;28;20172;-86
2023/05/29 09:59:29;;;;;;;5.07;2.85;;;23.40;1.00;;;;;;5100008;28;20196;-86
2023/05/29 10:02:04;;;;;;;4.32;2.70;;;23.50;1.00;;;;;;5083925;28;20245;-85
2023/05/29 10:04:33;;;;;;;4.22;2.75;;;23.50;1.00;;;;;;5085883;28;20172;-85
2023/05/29 10:07:26;;;;;;;3.53;2.78;;;23.60;1.00;;;;;;5084894;28;20175;-86
2023/05/29 10:10:04;;;;;;;5.03;2.80;;;23.80;1.00;;;;;;5085086;28;20193;-85
2023/05/29 10:12:34;;;;;;;5.40;2.60;;;23.80;1.00;;;;;;5104781;28;20176;-85
2023/05/29 10:15:01;;;;;;;3.17;2.50;;;23.80;1.00;;;;;;5087651;28;20254;-84
2023/05/29 10:17:32;;;;;;;5.57;3.10;;;24.00;1.00;;;;;;5087269;28;20194;-84
2023/05/29 10:20:06;;;;;;;4.40;2.67;;;24.20;99.90;;;;;;5087999;28;20188;-85
2023/05/29 10:22:32;;;;;;;4.45;2.95;;;24.10;99.90;;;;;;5106689;28;20204;-85
2023/05/29 10:24:58;;;;;;;4.50;2.90;;;24.20;99.90;;;;;;5104432;28;20172;-84
2023/05/29 10:27:24;;;;;;;5.05;3.00;;;24.30;99.90;;;;;;5085148;28;20176;-85
2023/05/29 10:29:54;;;;;;;4.03;3.00;;;24.30;99.90;;;;;;5105901;28;20219;-84
2023/05/29 10:32:42;;;;;;;4.50;2.78;;;24.20;99.90;;;;;;5089168;28;20196;-85
2023/05/29 10:35:14;;;;;;;3.83;2.70;;;24.50;99.90;;;;;;5087075;28;20173;-84
2023/05/29 10:37:45;;;;;;;4.88;2.97;;;24.70;99.90;;;;;;5100141;28;20176;-86
2023/05/29 10:40:12;;;;;;;3.28;2.60;;;24.80;99.90;;;;;;5103793;28;20192;-86
2023/05/29 10:42:46;;;;;;;4.72;2.50;;;24.60;99.90;;;;;;5096227;28;20245;-86
2023/05/29 10:45:31;;;;;;;5.22;2.65;;;24.70;99.90;;;;;;5098396;28;20172;-85
2023/05/29 10:48:17;;;;;;;4.05;2.33;;;24.90;99.90;;;;;;5093448;28;20195;-84
2023/05/29 10:50:45;;;;;;;3.58;2.65;;;25.10;99.90;;;;;;5089968;28;20184;-84
2023/05/29 10:53:16;;;;;;;4.22;2.50;;;25.00;99.90;;;;;;5104809;28;20562;-84
2023/05/29 10:55:42;;;;;;;2.92;2.40;;;25.20;99.90;;;;;;5107638;28;20175;-84
2023/05/29 10:58:23;;;;;;;4.13;2.47;;;25.20;99.90;;;;;;5107367;28;20184;-85
2023/05/29 11:00:49;;;;;;;3.47;2.60;;;25.20;99.90;;;;;;5106533;28;20206;-85
2023/05/29 11:03:29;;;;;;;3.28;2.40;;;25.60;99.90;;;;;;5105562;28;20171;-85
2023/05/29 11:06:13;;;;;;;5.75;2.80;;;26.00;99.90;;;;;;5102179;28;20164;-85
2023/05/29 11:08:56;;;;;;;4.18;2.60;;;25.80;99.90;;;;;;5069318;28;20193;-85
2023/05/29 11:11:27;;;;;;;3.53;2.67;;;26.10;99.90;;;;;;5086444;28;20172;-85
2023/05/29 11:13:55;;;;;;;4.15;2.58;;;26.20;99.90;;;;;;5086640;28;20173;-86
2023/05/29 11:16:30;;;;;;;3.83;2.80;;;25.90;99.90;;;;;;5090234;28;20161;-84
2023/05/29 11:18:57;;;;;;;3.38;2.80;;;26.00;99.90;;;;;;5088751;28;20201;-86
2023/05/29 11:21:34;;;;;;;4.57;2.45;;;26.00;99.90;;;;;;5088310;28;20207;-85
2023/05/29 11:24:06;;;;;;;3.17;2.60;;;26.00;99.90;;;;;;5081887;28;20173;-84
2023/05/29 11:26:32;;;;;;;3.83;2.70;;;26.10;99.90;;;;;;5082046;28;20165;-85
2023/05/29 11:29:00;;;;;;;3.92;2.90;;;26.20;99.90;;;;;;5083778;28;20196;-83
2023/05/29 11:31:28;;;;;;;4.88;2.70;;;26.20;99.90;;;;;;5081033;28;20177;-84
2023/05/29 11:33:58;;;;;;;4.07;2.47;;;26.30;99.90;;;;;;5065617;28;20177;-84
2023/05/29 11:36:25;;;;;;;2.78;2.35;;;26.40;99.90;;;;;;5065825;28;20161;-84
2023/05/29 11:38:51;;;;;;;3.97;2.55;;;26.50;99.90;;;;;;5065416;28;20213;-83
2023/05/29 11:41:17;;;;;;;3.33;2.70;;;26.60;99.90;;;;;;5081629;28;20201;-84
2023/05/29 11:43:43;;;;;;;2.70;2.47;;;26.30;99.90;;;;;;5081666;28;20175;-83
2023/05/29 11:46:19;;;;;;;2.97;2.55;;;26.20;99.90;;;;;;5064568;28;20211;-84
2023/05/29 11:48:48;;;;;;;3.17;2.65;;;26.40;99.90;;;;;;5083607;28;20189;-85
2023/05/29 11:51:15;;;;;;;3.67;2.53;;;26.60;99.90;;;;;;5084284;28;20191;-84
2023/05/29 11:53:42;;;;;;;7.32;2.70;;;26.40;99.90;;;;;;5086826;28;20173;-84
2023/05/29 11:56:10;;;;;;;5.03;2.78;;;26.10;99.90;;;;;;5087251;28;20173;-84
2023/05/29 11:58:37;;;;;;;4.20;2.50;;;26.20;99.90;;;;;;5087709;28;20188;-83
2023/05/29 12:01:03;;;;;;;4.50;2.63;;;26.30;99.90;;;;;;5087071;28;20218;-85
2023/05/29 12:03:29;;;;;;;3.65;2.50;;;26.70;99.90;;;;;;5068541;28;20173;-83
2023/05/29 12:05:55;;;;;;;4.22;2.63;;;26.90;99.90;;;;;;5085623;28;20196;-84
2023/05/29 12:08:24;;;;;;;4.50;2.60;;;26.70;99.90;;;;;;5085947;28;20199;-84
2023/05/29 12:10:51;;;;;;;3.55;2.50;;;26.80;99.90;;;;;;5087228;28;20165;-84
2023/05/29 12:13:19;;;;;;;3.83;2.70;;;27.10;99.90;;;;;;5087914;28;20589;-84
2023/05/29 12:15:46;;;;;;;3.38;2.90;;;26.90;99.90;;;;;;5085484;28;20264;-84
2023/05/29 12:18:11;;;;;;;4.00;2.38;;;26.60;99.90;;;;;;5088294;28;20218;-84
2023/05/29 12:20:37;;;;;;;5.13;2.72;;;26.90;99.90;;;;;;5088852;28;20177;-84
2023/05/29 12:23:03;;;;;;;3.85;2.95;;;27.00;99.90;;;;;;5071490;28;20195;-85
2023/05/29 12:25:29;;;;;;;7.60;2.90;;;26.80;99.90;;;;;;5087541;28;20173;-85
2023/05/29 12:27:57;;;;;;;4.05;2.60;;;26.80;99.90;;;;;;5103848;28;20173;-84
2023/05/29 12:30:23;;;;;;;5.50;2.50;;;26.90;99.90;;;;;;5110451;28;20230;-85
2023/05/29 12:32:54;;;;;;;2.38;2.17;;;27.10;99.90;;;;;;5111375;28;20172;-84
2023/05/29 12:35:24;;;;;;;4.63;2.58;;;27.00;99.90;;;;;;5107747;28;20228;-84
2023/05/29 12:37:57;;;;;;;5.55;2.63;;;26.90;99.90;;;;;;5105895;28;20173;-84
2023/05/29 12:40:33;;;;;;;3.78;2.67;;;26.90;99.90;;;;;;5095189;28;20173;-84
2023/05/29 12:43:05;;;;;;;4.90;2.70;;;27.20;99.90;;;;;;5102762;28;20225;-84
2023/05/29 12:45:32;;;;;;;3.83;2.90;;;27.30;99.90;;;;;;5103944;28;20173;-84
2023/05/29 12:48:03;;;;;;;3.38;2.40;;;27.50;99.90;;;;;;5104947;28;20562;-84
2023/05/29 12:50:31;;;;;;;3.38;2.50;;;27.50;99.90;;;;;;5101892;28;20180;-83
2023/05/29 12:53:12;;;;;;;3.72;2.58;;;27.30;99.90;;;;;;5103520;28;20187;-83